createdAt,value
2019-03-24T00:13:42.072Z,43.41
2019-03-24T00:17:43.564Z,43.45
2019-03-24T00:18:42.806Z,43.44
2019-03-24T00:21:44.443Z,43.44
2019-03-24T00:22:45.641Z,43.54
2019-03-24T00:25:49.731Z,43.89
2019-03-24T00:29:48.613Z,44.18
2019-03-24T00:30:49.218Z,44.24
2019-03-24T00:37:51.905Z,44.88
2019-03-24T00:38:54.052Z,44.96
2019-03-24T00:39:55.143Z,45.07
2019-03-24T00:41:57.907Z,45.20
2019-03-24T00:42:55.293Z,45.26
2019-03-24T00:47:57.673Z,45.45
2019-03-24T00:48:58.363Z,45.48
2019-03-24T00:51:59.207Z,45.42
2019-03-24T00:55:01.927Z,45.12
2019-03-24T00:56:03.988Z,44.99
2019-03-24T00:57:02.838Z,44.88
2019-03-24T01:03:03.618Z,44.25
2019-03-24T01:05:04.758Z,44.09
2019-03-24T01:07:06.607Z,43.98
2019-03-24T01:09:08.698Z,43.85
2019-03-24T01:11:08.045Z,43.71
2019-03-24T01:12:09.154Z,43.67
2019-03-24T01:17:10.483Z,43.45
2019-03-24T01:19:12.196Z,43.41
2019-03-24T01:21:13.348Z,43.38
2019-03-24T01:24:13.800Z,43.30
2019-03-24T01:30:16.345Z,43.25
2019-03-24T01:31:16.614Z,43.26
2019-03-24T01:32:20.117Z,43.21
2019-03-24T01:35:20.526Z,43.20
2019-03-24T01:37:19.638Z,43.21
2019-03-24T01:38:19.906Z,43.23
2019-03-24T01:39:20.780Z,43.24
2019-03-24T01:41:22.531Z,43.25
2019-03-24T01:42:21.591Z,43.26
2019-03-24T01:44:22.731Z,43.22
2019-03-24T01:45:23.000Z,43.25
2019-03-24T01:46:23.673Z,43.24
2019-03-24T01:49:27.095Z,43.30
2019-03-24T01:51:27.019Z,43.28
2019-03-24T01:53:26.772Z,43.34
2019-03-24T01:56:29.451Z,43.34
2019-03-24T01:57:28.661Z,43.33
2019-03-24T02:00:33.304Z,43.39
2019-03-24T02:01:32.384Z,43.39
2019-03-24T02:04:33.246Z,43.42
2019-03-24T02:09:34.399Z,43.45
2019-03-24T02:14:37.151Z,43.50
2019-03-24T02:15:39.350Z,43.51
2019-03-24T02:16:37.619Z,43.54
2019-03-24T02:17:38.292Z,43.52
2019-03-24T02:18:39.041Z,43.53
2019-03-24T02:19:39.438Z,43.54
2019-03-24T02:21:41.466Z,43.58
2019-03-24T02:23:40.939Z,43.58
2019-03-24T02:29:44.774Z,43.73
2019-03-24T02:31:46.346Z,43.97
2019-03-24T02:34:56.783Z,44.19
2019-03-24T02:36:47.464Z,44.34
2019-03-24T02:37:48.543Z,44.38
2019-03-24T02:39:49.924Z,44.59
2019-03-24T02:40:53.969Z,44.69
2019-03-24T02:41:49.418Z,44.80
2019-03-24T02:42:50.090Z,44.88
2019-03-24T02:43:51.773Z,44.96
2019-03-24T02:44:51.485Z,45.04
2019-03-24T02:45:51.907Z,45.11
2019-03-24T02:49:53.176Z,45.40
2019-03-24T02:50:54.739Z,45.46
2019-03-24T02:53:55.062Z,45.51
2019-03-24T02:54:55.929Z,45.56
2019-03-24T03:05:00.630Z,44.81
2019-03-24T03:08:01.677Z,44.49
2019-03-24T03:10:03.353Z,44.32
2019-03-24T03:12:04.092Z,44.16
2019-03-24T03:13:04.707Z,44.12
2019-03-24T03:14:05.449Z,44.04
2019-03-24T03:16:06.098Z,43.87
2019-03-24T03:17:06.021Z,43.84
2019-03-24T03:18:07.372Z,43.80
2019-03-24T03:19:12.457Z,43.76
2019-03-24T03:21:08.097Z,43.67
2019-03-24T03:28:10.975Z,43.45
2019-03-24T03:30:13.399Z,43.39
2019-03-24T03:31:14.758Z,43.38
2019-03-24T03:34:13.999Z,43.35
2019-03-24T03:40:16.614Z,43.30
2019-03-24T03:41:17.096Z,43.28
2019-03-24T03:42:17.555Z,43.31
2019-03-24T03:43:18.226Z,43.29
2019-03-24T03:46:20.894Z,43.29
2019-03-24T03:48:21.994Z,43.29
2019-03-24T03:49:22.084Z,43.30
2019-03-24T03:50:24.772Z,43.33
2019-03-24T03:51:24.820Z,43.37
2019-03-24T03:58:25.440Z,43.39
2019-03-24T04:00:27.443Z,43.41
2019-03-24T04:01:27.101Z,43.40
2019-03-24T04:02:28.169Z,43.40
2019-03-24T04:07:29.732Z,43.47
2019-03-24T04:12:31.682Z,43.51
2019-03-24T04:14:35.660Z,43.51
2019-03-24T04:19:42.092Z,43.58
2019-03-24T04:20:36.265Z,43.56
2019-03-24T04:21:44.983Z,43.57
2019-03-24T04:24:38.150Z,43.56
2019-03-24T04:26:39.902Z,43.62
2019-03-24T04:29:40.065Z,43.56
2019-03-24T04:35:45.820Z,43.59
2019-03-24T04:36:43.206Z,43.61
2019-03-24T04:40:46.161Z,43.66
2019-03-24T04:41:45.612Z,43.66
2019-03-24T04:42:47.852Z,43.67
2019-03-24T04:46:48.615Z,43.72
2019-03-24T04:47:49.411Z,43.72
2019-03-24T04:52:52.446Z,44.15
2019-03-24T04:54:54.947Z,44.25
2019-03-24T04:55:53.783Z,44.35
2019-03-24T04:56:53.930Z,44.40
2019-03-24T04:59:53.861Z,44.64
2019-03-24T05:04:06.408Z,45.04
2019-03-24T05:04:57.820Z,45.12
2019-03-24T05:10:00.390Z,45.49
2019-03-24T05:10:59.236Z,45.54
2019-03-24T05:17:03.325Z,45.63
2019-03-24T05:18:02.922Z,45.63
2019-03-24T05:20:03.449Z,45.51
2019-03-24T05:21:03.920Z,45.43
2019-03-24T05:23:04.857Z,45.13
2019-03-24T05:24:05.324Z,44.99
2019-03-24T05:26:06.539Z,44.81
2019-03-24T05:27:06.805Z,44.68
2019-03-24T05:31:09.003Z,44.30
2019-03-24T05:36:11.623Z,43.98
2019-03-24T05:38:12.355Z,43.84
2019-03-24T05:39:12.343Z,43.76
2019-03-24T05:40:12.682Z,43.73
2019-03-24T05:46:17.094Z,43.52
2019-03-24T05:51:23.002Z,43.38
2019-03-24T05:58:21.062Z,43.37
2019-03-24T05:59:22.153Z,43.34
2019-03-24T06:04:25.561Z,43.33
2019-03-24T06:05:24.755Z,43.33
2019-03-24T06:06:25.631Z,43.31
2019-03-24T06:08:26.369Z,43.29
2019-03-24T06:14:30.456Z,43.34
2019-03-24T06:16:29.527Z,43.32
2019-03-24T06:17:31.401Z,43.36
2019-03-24T06:22:32.965Z,43.31
2019-03-24T06:23:33.507Z,43.35
2019-03-24T06:26:34.516Z,43.36
2019-03-24T06:27:35.212Z,43.39
2019-03-24T06:28:35.390Z,43.40
2019-03-24T06:30:36.800Z,43.41
2019-03-24T06:31:38.005Z,43.41
2019-03-24T06:34:38.422Z,43.43
2019-03-24T06:36:39.563Z,43.43
2019-03-24T06:39:40.373Z,43.47
2019-03-24T06:40:41.120Z,43.46
2019-03-24T06:45:43.650Z,43.48
2019-03-24T06:46:44.485Z,43.48
2019-03-24T06:48:50.067Z,43.49
2019-03-24T06:50:46.171Z,43.47
2019-03-24T06:53:47.640Z,43.50
2019-03-24T06:59:51.437Z,43.57
2019-03-24T07:01:53.490Z,43.77
2019-03-24T07:02:51.441Z,43.91
2019-03-24T07:03:51.910Z,44.00
2019-03-24T07:07:54.054Z,44.30
2019-03-24T07:09:56.419Z,44.45
2019-03-24T07:10:55.008Z,44.54
2019-03-24T07:12:59.387Z,44.73
2019-03-24T07:24:03.123Z,45.38
2019-03-24T07:25:04.689Z,45.41
2019-03-24T07:27:02.927Z,45.46
2019-03-24T07:29:04.066Z,45.39
2019-03-24T07:30:03.928Z,45.38
2019-03-24T07:32:05.286Z,45.14
2019-03-24T07:36:07.142Z,44.65
2019-03-24T07:37:08.406Z,44.51
2019-03-24T07:38:08.687Z,44.42
2019-03-24T07:41:22.017Z,44.10
2019-03-24T07:42:11.641Z,44.03
2019-03-24T07:43:10.565Z,43.91
2019-03-24T07:44:11.093Z,43.81
2019-03-24T07:46:11.826Z,43.68
2019-03-24T07:47:12.492Z,43.64
2019-03-24T07:49:12.825Z,43.55
2019-03-24T07:50:13.495Z,43.49
2019-03-24T07:52:17.467Z,43.44
2019-03-24T07:53:16.240Z,43.41
2019-03-24T07:55:17.084Z,43.35
2019-03-24T07:56:16.738Z,43.34
2019-03-24T08:00:17.991Z,43.25
2019-03-24T08:02:19.506Z,43.33
2019-03-24T08:06:22.414Z,43.29
2019-03-24T08:08:24.243Z,43.34
2019-03-24T08:13:24.449Z,43.35
2019-03-24T08:14:25.439Z,43.34
2019-03-24T08:17:26.473Z,43.33
2019-03-24T08:20:27.816Z,43.21
2019-03-24T08:25:36.980Z,43.14
2019-03-24T08:27:32.128Z,43.13
2019-03-24T08:31:47.661Z,43.12
2019-03-24T08:44:10.425Z,43.83
2019-03-24T08:50:09.805Z,44.35
2019-03-24T08:52:16.061Z,44.56
2019-03-24T08:59:29.101Z,45.16
2019-03-24T09:01:29.726Z,45.27
2019-03-24T09:06:31.923Z,45.39
2019-03-24T09:24:54.755Z,43.86
2019-03-24T09:26:56.405Z,43.66
2019-03-24T09:29:57.949Z,43.51
2019-03-24T09:32:00.365Z,43.33
2019-03-24T09:41:02.299Z,42.95
2019-03-24T09:42:02.231Z,42.94
2019-03-24T09:47:05.186Z,42.83
2019-03-24T09:52:06.932Z,42.79
2019-03-24T09:54:08.074Z,42.80
2019-03-24T09:55:09.758Z,42.78
2019-03-24T09:56:10.418Z,42.77
2019-03-24T09:58:11.714Z,42.78
2019-03-24T10:00:10.899Z,42.76
2019-03-24T10:04:12.581Z,42.77
2019-03-24T10:09:16.794Z,42.84
2019-03-24T10:10:15.206Z,42.83
2019-03-24T10:11:18.509Z,42.86
2019-03-24T10:13:16.621Z,42.82
2019-03-24T10:15:18.183Z,42.85
2019-03-24T10:16:18.239Z,42.85
2019-03-24T10:18:18.986Z,42.93
2019-03-24T10:20:20.125Z,42.91
2019-03-24T10:23:22.081Z,42.97
2019-03-24T10:25:29.698Z,42.99
2019-03-24T10:26:22.755Z,42.98
2019-03-24T10:28:23.901Z,42.99
2019-03-24T10:29:24.378Z,43.00
2019-03-24T10:30:25.048Z,43.03
2019-03-24T10:32:26.195Z,43.13
2019-03-24T10:36:28.085Z,43.59
2019-03-24T10:37:28.150Z,43.67
2019-03-24T10:38:28.424Z,43.72
2019-03-24T10:39:29.096Z,43.77
2019-03-24T10:40:29.573Z,43.87
2019-03-24T10:43:31.184Z,44.16
2019-03-24T10:44:32.061Z,44.27
2019-03-24T10:45:33.118Z,44.35
2019-03-24T10:48:34.549Z,44.58
2019-03-24T10:50:35.271Z,44.75
2019-03-24T10:51:34.949Z,44.83
2019-03-24T10:54:37.145Z,44.97
2019-03-24T10:56:36.888Z,45.04
2019-03-24T11:00:38.964Z,45.05
2019-03-24T11:01:39.435Z,44.94
2019-03-24T11:02:39.696Z,44.85
2019-03-24T11:03:40.367Z,44.78
2019-03-24T11:04:40.683Z,44.65
2019-03-24T11:05:41.366Z,44.56
2019-03-24T11:06:41.770Z,44.48
2019-03-24T11:07:42.039Z,44.41
2019-03-24T11:08:42.707Z,44.33
2019-03-24T11:09:44.999Z,44.21
2019-03-24T11:10:44.454Z,44.14
2019-03-24T11:11:44.316Z,44.04
2019-03-24T11:12:44.377Z,43.94
2019-03-24T11:13:44.846Z,43.86
2019-03-24T11:14:45.470Z,43.79
2019-03-24T11:16:46.252Z,43.72
2019-03-24T11:17:46.924Z,43.64
2019-03-24T11:20:48.127Z,43.45
2019-03-24T11:21:48.594Z,43.43
2019-03-24T11:22:49.065Z,43.40
2019-03-24T11:24:50.209Z,43.28
2019-03-24T11:25:50.676Z,43.24
2019-03-24T11:26:50.940Z,43.23
2019-03-24T11:28:51.881Z,43.21
2019-03-24T11:29:52.552Z,43.16
2019-03-24T11:30:52.817Z,43.16
2019-03-24T11:31:54.098Z,43.15
2019-03-24T11:32:53.758Z,43.13
2019-03-24T11:35:55.166Z,43.08
2019-03-24T11:37:56.108Z,43.09
2019-03-24T11:38:59.014Z,43.06
2019-03-24T11:39:57.049Z,43.03
2019-03-24T11:40:57.517Z,43.01
2019-03-24T11:41:57.993Z,43.01
2019-03-24T11:42:58.659Z,43.03
2019-03-24T11:44:59.398Z,43.00
2019-03-24T11:46:00.071Z,43.03
2019-03-24T11:47:00.340Z,43.04
2019-03-24T11:48:00.812Z,43.03
2019-03-24T11:49:01.486Z,43.06
2019-03-24T11:51:02.225Z,43.02
2019-03-24T11:52:02.899Z,42.99
2019-03-24T11:53:03.371Z,42.98
2019-03-24T11:55:04.110Z,42.99
2019-03-24T11:56:04.579Z,43.03
2019-03-24T11:57:05.051Z,43.04
2019-03-24T12:00:06.466Z,43.04
2019-03-24T12:02:07.409Z,43.09
2019-03-24T12:03:07.882Z,43.09
2019-03-24T12:04:08.350Z,43.08
2019-03-24T12:05:09.076Z,43.12
2019-03-24T12:06:14.547Z,43.10
2019-03-24T12:08:10.519Z,43.13
2019-03-24T12:09:10.709Z,43.15
2019-03-24T12:10:11.387Z,43.16
2019-03-24T12:11:11.858Z,43.18
2019-03-24T12:12:12.338Z,43.16
2019-03-24T12:13:12.599Z,43.20
2019-03-24T12:14:13.271Z,43.20
2019-03-24T12:15:13.541Z,43.20
2019-03-24T12:16:14.014Z,43.21
2019-03-24T12:17:14.487Z,43.21
2019-03-24T12:18:15.158Z,43.21
2019-03-24T12:19:15.428Z,43.24
2019-03-24T12:20:15.902Z,43.23
2019-03-24T12:21:16.581Z,43.22
2019-03-24T12:22:17.049Z,43.23
2019-03-24T12:23:17.322Z,43.22
2019-03-24T12:24:18.197Z,43.29
2019-03-24T12:25:18.264Z,43.26
2019-03-24T12:26:18.733Z,43.34
2019-03-24T12:27:19.211Z,43.44
2019-03-24T12:28:19.680Z,43.57
2019-03-24T12:29:20.154Z,43.71
2019-03-24T12:30:20.623Z,43.81
2019-03-24T12:32:21.570Z,43.97
2019-03-24T12:33:22.043Z,44.04
2019-03-24T12:34:22.513Z,44.09
2019-03-24T12:35:22.984Z,44.17
2019-03-24T12:37:23.929Z,44.37
2019-03-24T12:38:24.399Z,44.48
2019-03-24T12:39:24.871Z,44.55
2019-03-24T12:40:25.342Z,44.62
2019-03-24T12:41:25.812Z,44.70
2019-03-24T12:42:26.487Z,44.78
2019-03-24T12:43:26.954Z,44.86
2019-03-24T12:44:27.228Z,44.94
2019-03-24T12:45:27.693Z,45.03
2019-03-24T12:46:28.163Z,45.09
2019-03-24T12:47:28.633Z,45.15
2019-03-24T12:48:29.127Z,45.22
2019-03-24T12:49:29.568Z,45.25
2019-03-24T12:50:31.629Z,45.25
2019-03-24T12:51:30.508Z,45.27
2019-03-24T12:52:30.977Z,45.30
2019-03-24T12:53:31.443Z,45.33
2019-03-24T12:54:31.955Z,45.33
2019-03-24T12:55:32.380Z,45.28
2019-03-24T12:56:32.850Z,45.20
2019-03-24T12:57:33.319Z,45.13
2019-03-24T12:58:33.784Z,45.03
2019-03-24T12:59:34.255Z,44.91
2019-03-24T13:00:34.723Z,44.80
2019-03-24T13:01:35.194Z,44.69
2019-03-24T13:02:35.861Z,44.60
2019-03-24T13:04:36.596Z,44.40
2019-03-24T13:05:37.119Z,44.32
2019-03-24T13:06:37.530Z,44.26
2019-03-24T13:08:38.478Z,44.14
2019-03-24T13:09:39.136Z,44.06
2019-03-24T13:10:39.607Z,43.97
2019-03-24T13:11:39.872Z,43.90
2019-03-24T13:12:40.348Z,43.86
2019-03-24T13:13:41.012Z,43.84
2019-03-24T13:15:41.755Z,43.71
2019-03-24T13:16:42.220Z,43.65
2019-03-24T13:17:42.685Z,43.60
2019-03-24T13:18:43.357Z,43.58
2019-03-24T13:19:43.629Z,43.56
2019-03-24T13:20:44.095Z,43.52
2019-03-24T13:21:44.964Z,43.44
2019-03-24T13:22:45.435Z,43.43
2019-03-24T13:23:45.501Z,43.38
2019-03-24T13:24:45.969Z,43.33
2019-03-24T13:25:46.444Z,43.33
2019-03-24T13:26:46.906Z,43.32
2019-03-24T13:27:47.377Z,43.36
2019-03-24T13:29:48.319Z,43.33
2019-03-24T13:30:48.787Z,43.31
2019-03-24T13:31:49.258Z,43.32
2019-03-24T13:33:50.198Z,43.29
2019-03-24T13:34:51.070Z,43.32
2019-03-24T13:35:51.340Z,43.28
2019-03-24T13:36:51.606Z,43.26
2019-03-24T13:38:52.751Z,43.23
2019-03-24T13:39:53.017Z,43.24
2019-03-24T13:40:53.492Z,43.24
2019-03-24T13:41:53.960Z,43.22
2019-03-24T13:42:54.433Z,43.22
2019-03-24T13:43:54.903Z,43.23
2019-03-24T13:44:55.372Z,43.24
2019-03-24T13:45:57.355Z,43.25
2019-03-24T13:46:57.326Z,43.27
2019-03-24T13:47:57.187Z,43.24
2019-03-24T13:48:57.255Z,43.27
2019-03-24T13:49:57.727Z,43.26
2019-03-24T13:50:58.201Z,43.22
2019-03-24T13:51:58.671Z,43.22
2019-03-24T13:52:59.152Z,43.24
2019-03-24T13:53:59.614Z,43.26
2019-03-24T13:55:00.121Z,43.23
2019-03-24T13:56:00.759Z,43.23
2019-03-24T13:57:01.029Z,43.24
2019-03-24T13:58:01.500Z,43.26
2019-03-24T13:59:01.971Z,43.30
2019-03-24T14:01:03.166Z,43.29
2019-03-24T14:02:03.385Z,43.30
2019-03-24T14:03:03.855Z,43.33
2019-03-24T14:04:04.328Z,43.33
2019-03-24T14:05:04.803Z,43.34
2019-03-24T14:06:05.273Z,43.32
2019-03-24T14:07:05.754Z,43.35
2019-03-24T14:08:06.215Z,43.36
2019-03-24T14:09:06.689Z,43.36
2019-03-24T14:11:07.835Z,43.42
2019-03-24T14:12:08.306Z,43.41
2019-03-24T14:13:08.578Z,43.44
2019-03-24T14:14:09.050Z,43.43
2019-03-24T14:17:10.467Z,43.42
2019-03-24T14:18:10.937Z,43.46
2019-03-24T14:19:11.413Z,43.47
2019-03-24T14:20:11.882Z,43.45
2019-03-24T14:21:12.357Z,43.48
2019-03-24T14:22:12.828Z,43.56
2019-03-24T14:23:13.299Z,43.66
2019-03-24T14:24:13.972Z,43.82
2019-03-24T14:25:14.446Z,43.93
2019-03-24T14:26:14.918Z,44.04
2019-03-24T14:27:15.197Z,44.14
2019-03-24T14:28:15.658Z,44.22
2019-03-24T14:29:16.131Z,44.29
2019-03-24T14:30:16.605Z,44.34
2019-03-24T14:31:17.075Z,44.42
2019-03-24T14:32:17.546Z,44.51
2019-03-24T14:33:18.020Z,44.60
2019-03-24T14:34:18.694Z,44.73
2019-03-24T14:35:18.964Z,44.82
2019-03-24T14:36:19.431Z,44.90
2019-03-24T14:38:20.374Z,45.05
2019-03-24T14:39:20.842Z,45.14
2019-03-24T14:40:21.717Z,45.24
2019-03-24T14:41:21.982Z,45.30
2019-03-24T14:42:22.252Z,45.37
2019-03-24T14:43:22.722Z,45.41
2019-03-24T14:44:23.190Z,45.47
2019-03-24T14:45:23.862Z,45.48
2019-03-24T14:46:24.341Z,45.48
2019-03-24T14:47:24.600Z,45.51
2019-03-24T14:49:25.533Z,45.54
2019-03-24T14:50:26.314Z,45.51
2019-03-24T14:51:26.469Z,45.45
2019-03-24T14:52:26.958Z,45.34
2019-03-24T14:53:27.408Z,45.29
2019-03-24T14:54:27.880Z,45.16
2019-03-24T14:55:28.545Z,45.08
2019-03-24T14:56:28.813Z,44.93
2019-03-24T14:57:29.279Z,44.85
2019-03-24T14:58:29.754Z,44.75
2019-03-24T14:59:30.217Z,44.63
2019-03-24T15:00:30.722Z,44.54
2019-03-24T15:01:31.158Z,44.46
2019-03-24T15:02:31.825Z,44.39
2019-03-24T15:03:32.089Z,44.31
2019-03-24T15:04:32.557Z,44.24
2019-03-24T15:05:33.028Z,44.17
2019-03-24T15:06:33.695Z,44.12
2019-03-24T15:07:33.961Z,44.07
2019-03-24T15:08:34.430Z,43.97
2019-03-24T15:10:35.576Z,43.83
2019-03-24T15:11:36.039Z,43.81
2019-03-24T15:13:36.774Z,43.76
2019-03-24T15:14:37.246Z,43.69
2019-03-24T15:15:37.716Z,43.64
2019-03-24T15:16:38.389Z,43.62
2019-03-24T15:17:38.653Z,43.62
2019-03-24T15:18:39.122Z,43.57
2019-03-24T15:19:39.997Z,43.57
2019-03-24T15:20:40.059Z,43.52
2019-03-24T15:21:40.735Z,43.52
2019-03-24T15:22:41.005Z,43.50
2019-03-24T15:23:41.695Z,43.47
2019-03-24T15:24:42.140Z,43.47
2019-03-24T15:26:43.557Z,43.45
2019-03-24T15:27:43.348Z,43.45
2019-03-24T15:28:44.022Z,43.42
2019-03-24T15:29:44.289Z,43.42
2019-03-24T15:30:44.762Z,43.43
2019-03-24T15:31:45.297Z,43.42
2019-03-24T15:34:46.645Z,43.42
2019-03-24T15:35:47.112Z,43.45
2019-03-24T15:36:48.997Z,43.40
2019-03-24T15:37:48.055Z,43.42
2019-03-24T15:38:48.932Z,43.40
2019-03-24T15:40:49.877Z,43.38
2019-03-24T15:41:50.399Z,43.40
2019-03-24T15:42:50.612Z,43.38
2019-03-24T15:43:50.881Z,43.39
2019-03-24T15:44:53.152Z,43.39
2019-03-24T15:45:51.824Z,43.43
2019-03-24T15:46:52.350Z,43.44
2019-03-24T15:48:53.643Z,43.44
2019-03-24T15:49:53.708Z,43.43
2019-03-24T15:50:54.182Z,43.41
2019-03-24T15:51:54.655Z,43.44
2019-03-24T15:52:55.123Z,43.47
2019-03-24T15:54:56.272Z,43.49
2019-03-24T15:55:56.815Z,43.46
2019-03-24T15:56:57.214Z,43.50
2019-03-24T15:57:57.690Z,43.50
2019-03-24T15:58:57.953Z,43.48
2019-03-24T15:59:58.635Z,43.51
2019-03-24T16:00:59.100Z,43.52
2019-03-24T16:01:59.372Z,43.56
2019-03-24T16:03:00.045Z,43.56
2019-03-24T16:04:00.518Z,43.57
2019-03-24T16:05:00.786Z,43.57
2019-03-24T16:07:01.935Z,43.55
2019-03-24T16:08:02.609Z,43.56
2019-03-24T16:09:02.876Z,43.57
2019-03-24T16:13:04.907Z,43.97
2019-03-24T16:14:05.037Z,44.08
2019-03-24T16:15:06.925Z,44.17
2019-03-24T16:16:06.187Z,44.28
2019-03-24T16:17:06.455Z,44.37
2019-03-24T16:18:06.928Z,44.43
2019-03-24T16:19:07.399Z,44.50
2019-03-24T16:21:08.546Z,44.66
2019-03-24T16:22:09.016Z,44.78
2019-03-24T16:23:09.300Z,44.89
2019-03-24T16:24:09.753Z,44.97
2019-03-24T16:25:10.226Z,45.06
2019-03-24T16:26:11.304Z,45.15
2019-03-24T16:28:11.637Z,45.32
2019-03-24T16:30:12.780Z,45.46
2019-03-24T16:31:13.044Z,45.53
2019-03-24T16:32:13.519Z,45.57
2019-03-24T16:33:13.991Z,45.62
2019-03-24T16:34:14.658Z,45.64
2019-03-24T16:35:14.925Z,45.68
2019-03-24T16:36:15.389Z,45.71
2019-03-24T16:37:15.860Z,45.75
2019-03-24T16:38:16.532Z,45.74
2019-03-24T16:39:16.798Z,45.70
2019-03-24T16:40:17.264Z,45.62
2019-03-24T16:41:17.733Z,45.57
2019-03-24T16:42:18.203Z,45.49
2019-03-24T16:43:18.669Z,45.33
2019-03-24T16:45:19.808Z,45.14
2019-03-24T16:46:20.081Z,45.02
2019-03-24T16:47:20.747Z,44.91
2019-03-24T16:48:21.014Z,44.82
2019-03-24T16:49:21.681Z,44.73
2019-03-24T16:50:21.950Z,44.64
2019-03-24T16:51:22.622Z,44.58
2019-03-24T16:52:22.885Z,44.49
2019-03-24T16:53:23.351Z,44.41
2019-03-24T16:54:24.022Z,44.34
2019-03-24T16:55:24.498Z,44.23
2019-03-24T16:56:24.756Z,44.20
2019-03-24T16:57:25.429Z,44.15
2019-03-24T16:58:25.704Z,44.08
2019-03-24T16:59:26.174Z,44.01
2019-03-24T17:00:26.835Z,43.99
2019-03-24T17:01:27.505Z,43.93
2019-03-24T17:02:27.622Z,43.88
2019-03-24T17:03:28.242Z,43.85
2019-03-24T17:04:28.506Z,43.82
2019-03-24T17:05:28.977Z,43.78
2019-03-24T17:06:29.448Z,43.77
2019-03-24T17:07:29.922Z,43.73
2019-03-24T17:08:30.387Z,43.69
2019-03-24T17:09:31.227Z,43.67
2019-03-24T17:10:31.327Z,43.68
2019-03-24T17:11:32.142Z,43.65
2019-03-24T17:12:32.264Z,43.64
2019-03-24T17:13:32.940Z,43.64
2019-03-24T17:14:33.610Z,43.62
2019-03-24T17:15:33.881Z,43.63
2019-03-24T17:16:34.147Z,43.61
2019-03-24T17:17:34.616Z,43.62
2019-03-24T17:18:35.087Z,43.61
2019-03-24T17:19:35.963Z,43.57
2019-03-24T17:20:36.113Z,43.53
2019-03-24T17:21:36.498Z,43.53
2019-03-24T17:22:36.969Z,43.54
2019-03-24T17:23:37.484Z,43.55
2019-03-24T17:24:37.911Z,43.60
2019-03-24T17:25:38.381Z,43.56
2019-03-24T17:26:38.858Z,43.59
2019-03-24T17:28:39.796Z,43.61
2019-03-24T17:29:40.265Z,43.64
2019-03-24T17:30:40.737Z,43.65
2019-03-24T17:31:41.247Z,43.64
2019-03-24T17:32:41.731Z,43.62
2019-03-24T17:33:42.352Z,43.65
2019-03-24T17:34:42.624Z,43.64
2019-03-24T17:35:43.094Z,43.68
2019-03-24T17:36:43.563Z,43.74
2019-03-24T17:37:44.047Z,43.69
2019-03-24T17:38:44.510Z,43.71
2019-03-24T17:39:44.982Z,43.69
2019-03-24T17:40:45.450Z,43.68
2019-03-24T17:41:45.922Z,43.67
2019-03-24T17:43:46.867Z,43.72
2019-03-24T17:44:47.336Z,43.72
2019-03-24T17:45:47.816Z,43.75
2019-03-24T17:46:48.488Z,43.74
2019-03-24T17:47:48.755Z,43.79
2019-03-24T17:48:49.226Z,43.81
2019-03-24T17:49:49.697Z,43.79
2019-03-24T17:50:50.175Z,43.83
2019-03-24T17:52:00.466Z,43.80
2019-03-24T17:52:51.113Z,43.81
2019-03-24T17:53:51.586Z,43.85
2019-03-24T17:55:52.529Z,43.86
2019-03-24T17:56:53.002Z,43.88
2019-03-24T17:57:53.472Z,43.85
2019-03-24T17:58:53.950Z,43.85
2019-03-24T17:59:54.419Z,43.88
2019-03-24T18:00:54.890Z,43.90
2019-03-24T18:01:55.365Z,43.92
2019-03-24T18:02:55.834Z,43.88
2019-03-24T18:03:56.308Z,43.87
2019-03-24T18:04:56.780Z,43.87
2019-03-24T18:05:59.481Z,44.01
2019-03-24T18:06:57.725Z,44.15
2019-03-24T18:07:58.199Z,44.32
2019-03-24T18:08:58.668Z,44.42
2019-03-24T18:09:59.141Z,44.48
2019-03-24T18:10:59.616Z,44.58
2019-03-24T18:12:00.291Z,44.67
2019-03-24T18:13:00.555Z,44.71
2019-03-24T18:14:01.028Z,44.76
2019-03-24T18:15:01.500Z,44.86
2019-03-24T18:16:01.972Z,44.98
2019-03-24T18:17:03.194Z,45.09
2019-03-24T18:18:03.320Z,45.18
2019-03-24T18:19:03.386Z,45.27
2019-03-24T18:20:04.062Z,45.35
2019-03-24T18:21:04.326Z,45.45
2019-03-24T18:22:11.500Z,45.50
2019-03-24T18:23:05.318Z,45.59
2019-03-24T18:24:05.742Z,45.67
2019-03-24T18:25:06.204Z,45.74
2019-03-24T18:26:06.676Z,45.82
2019-03-24T18:27:07.145Z,45.86
2019-03-24T18:28:07.613Z,45.90
2019-03-24T18:29:08.081Z,45.88
2019-03-24T18:30:08.553Z,45.94
2019-03-24T18:31:09.020Z,45.96
2019-03-24T18:32:09.487Z,45.99
2019-03-24T18:33:09.956Z,45.97
2019-03-24T18:34:10.425Z,45.96
2019-03-24T18:35:10.895Z,45.90
2019-03-24T18:36:11.362Z,45.82
2019-03-24T18:37:12.032Z,45.72
2019-03-24T18:38:12.297Z,45.60
2019-03-24T18:39:12.767Z,45.44
2019-03-24T18:40:13.243Z,45.34
2019-03-24T18:41:13.706Z,45.21
2019-03-24T18:42:14.170Z,45.11
2019-03-24T18:43:14.637Z,45.01
2019-03-24T18:44:15.108Z,44.93
2019-03-24T18:45:15.574Z,44.84
2019-03-24T18:46:16.041Z,44.78
2019-03-24T18:47:16.511Z,44.67
2019-03-24T18:48:17.028Z,44.58
2019-03-24T18:49:17.449Z,44.54
2019-03-24T18:50:17.920Z,44.46
2019-03-24T18:51:18.390Z,44.38
2019-03-24T18:52:22.953Z,44.28
2019-03-24T18:53:19.323Z,44.24
2019-03-24T18:54:19.789Z,44.16
2019-03-24T18:55:20.258Z,44.13
2019-03-24T18:56:20.726Z,44.06
2019-03-24T18:57:21.196Z,44.06
2019-03-24T18:58:21.718Z,43.99
2019-03-24T18:59:22.135Z,43.98
2019-03-24T19:00:22.606Z,43.92
2019-03-24T19:01:23.073Z,43.87
2019-03-24T19:02:23.540Z,43.86
2019-03-24T19:03:24.062Z,43.81
2019-03-24T19:04:24.481Z,43.82
2019-03-24T19:05:24.949Z,43.81
2019-03-24T19:06:25.456Z,43.77
2019-03-24T19:07:25.894Z,43.72
2019-03-24T19:08:26.358Z,43.75
2019-03-24T19:09:26.830Z,43.76
2019-03-24T19:10:27.299Z,43.76
2019-03-24T19:11:27.768Z,43.76
2019-03-24T19:12:28.237Z,43.74
2019-03-24T19:13:28.758Z,43.71
2019-03-24T19:14:29.178Z,43.76
2019-03-24T19:15:29.649Z,43.74
2019-03-24T19:16:30.122Z,43.74
2019-03-24T19:17:30.590Z,43.71
2019-03-24T19:18:31.062Z,43.72
2019-03-24T19:19:31.578Z,43.72
2019-03-24T19:20:32.001Z,43.70
2019-03-24T19:21:32.474Z,43.67
2019-03-24T19:22:33.701Z,43.69
2019-03-24T19:23:33.413Z,43.67
2019-03-24T19:24:33.882Z,43.69
2019-03-24T19:25:34.353Z,43.73
2019-03-24T19:26:34.825Z,43.72
2019-03-24T19:27:35.297Z,43.71
2019-03-24T19:28:35.769Z,43.71
2019-03-24T19:29:36.237Z,43.79
2019-03-24T19:30:36.711Z,43.75
2019-03-24T19:31:37.183Z,43.73
2019-03-24T19:32:37.651Z,43.75
2019-03-24T19:33:38.121Z,43.75
2019-03-24T19:34:38.593Z,43.79
2019-03-24T19:35:39.063Z,43.77
2019-03-24T19:36:39.536Z,43.81
2019-03-24T19:37:40.007Z,43.77
2019-03-24T19:38:40.530Z,43.81
2019-03-24T19:39:40.950Z,43.80
2019-03-24T19:40:41.423Z,43.79
2019-03-24T19:41:41.894Z,43.80
2019-03-24T19:42:42.365Z,43.81
2019-03-24T19:43:42.837Z,43.83
2019-03-24T19:44:43.312Z,43.81
2019-03-24T19:45:43.781Z,43.80
2019-03-24T19:46:44.251Z,43.84
2019-03-24T19:47:44.724Z,43.86
2019-03-24T19:48:45.194Z,43.86
2019-03-24T19:50:46.139Z,43.87
2019-03-24T19:51:46.614Z,43.84
2019-03-24T19:52:47.083Z,43.89
2019-03-24T19:53:47.558Z,43.92
2019-03-24T19:54:48.026Z,43.92
2019-03-24T19:55:48.503Z,43.91
2019-03-24T19:56:48.972Z,43.92
2019-03-24T19:57:49.444Z,43.91
2019-03-24T19:58:49.914Z,43.93
2019-03-24T19:59:50.387Z,43.94
2019-03-24T20:00:50.861Z,43.93
2019-03-24T20:01:51.334Z,43.96
2019-03-24T20:02:51.803Z,43.95
2019-03-24T20:03:52.327Z,43.92
2019-03-24T20:04:52.749Z,43.95
2019-03-24T20:05:53.219Z,43.95
2019-03-24T20:06:53.693Z,44.00
2019-03-24T20:07:54.168Z,44.02
2019-03-24T20:08:54.688Z,44.14
2019-03-24T20:10:55.581Z,44.41
2019-03-24T20:11:56.194Z,44.50
2019-03-24T20:12:56.526Z,44.58
2019-03-24T20:13:56.999Z,44.69
2019-03-24T20:14:57.469Z,44.77
2019-03-24T20:15:57.942Z,44.81
2019-03-24T20:16:58.412Z,44.90
2019-03-24T20:17:58.891Z,44.98
2019-03-24T20:18:59.357Z,45.10
2019-03-24T20:19:59.828Z,45.20
2019-03-24T20:21:00.322Z,45.29
2019-03-24T20:22:00.773Z,45.39
2019-03-24T20:23:01.242Z,45.47
2019-03-24T20:24:01.762Z,45.56
2019-03-24T20:25:02.183Z,45.63
2019-03-24T20:26:02.650Z,45.75
2019-03-24T20:27:03.122Z,45.82
2019-03-24T20:28:03.593Z,45.88
2019-03-24T20:29:04.109Z,45.93
2019-03-24T20:30:04.586Z,45.98
2019-03-24T20:31:04.997Z,46.00
2019-03-24T20:32:05.464Z,46.01